Time;durP1;ratioP1;P1;durP2;ratioP2;P2;SDS_P1;SDS_P2;PMS_P1;PMS_P2;Temp;Humidity;BMP_temperature;BMP_pressure;BME280_temperature;BME280_humidity;BME280_pressure;Samples;Min_cycle;Max_cycle;Signal;HPM_P1;HPM_P2
2022/12/08 00:01:10;;;;;;;40.75;15.40;;;;;;;2.83;100.00;96944.00;5063395;28;20169;-57
2022/12/08 00:03:38;;;;;;;36.30;16.50;;;;;;;2.77;100.00;96946.09;5078680;28;20058;-56
2022/12/08 00:11:37;;;;;;;38.88;17.15;;;;;;;2.86;100.00;96935.16;5064661;28;20040;-56
2022/12/08 00:14:04;;;;;;;39.95;18.67;;;;;;;2.76;100.00;96946.44;5066811;28;20056;-56
2022/12/08 00:16:31;;;;;;;53.00;21.80;;;;;;;2.72;100.00;96945.44;5099479;28;20821;-56
2022/12/08 00:18:57;;;;;;;47.80;20.02;;;;;;;2.82;100.00;96939.66;5053545;28;20048;-59
2022/12/08 00:21:24;;;;;;;55.75;19.67;;;;;;;2.72;100.00;96951.72;5065558;28;20660;-57
2022/12/08 00:23:54;;;;;;;39.97;16.77;;;;;;;2.72;100.00;96945.44;5067518;28;20052;-57
2022/12/08 00:26:20;;;;;;;39.45;16.98;;;;;;;2.79;100.00;96934.84;5067324;28;20334;-57
2022/12/08 00:28:47;;;;;;;43.92;17.52;;;;;;;2.75;100.00;96925.69;5066980;28;20064;-57
2022/12/08 00:31:15;;;;;;;40.03;15.85;;;;;;;2.91;100.00;96943.19;5065157;28;20110;-56
2022/12/08 00:33:42;;;;;;;38.53;16.35;;;;;;;2.70;100.00;96925.84;5066785;28;20071;-56
2022/12/08 00:36:11;;;;;;;49.40;19.17;;;;;;;2.37;100.00;96950.09;5065286;28;20087;-57
2022/12/08 00:38:39;;;;;;;36.90;16.65;;;;;;;2.39;100.00;96936.13;5066354;28;20580;-56
2022/12/08 00:41:11;;;;;;;47.67;18.13;;;;;;;2.53;100.00;96942.25;5066443;28;20052;-57
2022/12/08 00:43:37;;;;;;;44.22;16.58;;;;;;;2.18;100.00;96891.44;5066615;28;20139;-58
2022/12/08 00:46:04;;;;;;;46.38;17.63;;;;;;;2.52;100.00;96951.56;5066492;28;20471;-55
2022/12/08 00:48:31;;;;;;;41.65;17.75;;;;;;;2.57;100.00;96944.03;5066256;28;20060;-56
2022/12/08 00:50:57;;;;;;;42.55;18.77;;;;;;;2.55;100.00;96950.91;5066206;28;20049;-56
2022/12/08 00:53:24;;;;;;;45.67;17.95;;;;;;;2.52;100.00;96924.22;5066014;28;20576;-56
2022/12/08 00:55:51;;;;;;;67.85;25.63;;;;;;;2.23;100.00;96866.69;5064436;28;20135;-57
2022/12/08 00:58:17;;;;;;;67.80;25.58;;;;;;;2.73;100.00;96947.06;5065845;28;20135;-56
2022/12/08 01:00:44;;;;;;;47.17;20.40;;;;;;;2.55;100.00;96934.53;5066637;28;20078;-57
2022/12/08 01:03:12;;;;;;;52.83;21.23;;;;;;;2.63;100.00;96956.41;5065136;28;20126;-56
2022/12/08 01:05:38;;;;;;;55.38;22.55;;;;;;;2.69;100.00;96940.63;5065981;28;20053;-56
2022/12/08 01:08:06;;;;;;;51.63;18.63;;;;;;;2.55;100.00;96901.72;5066252;28;20469;-58
2022/12/08 01:10:38;;;;;;;50.17;20.00;;;;;;;2.38;100.00;96890.78;5066158;28;20502;-57
2022/12/08 01:13:05;;;;;;;50.22;21.10;;;;;;;2.53;100.00;96931.31;5066181;28;20525;-56
2022/12/08 01:15:31;;;;;;;39.60;16.23;;;;;;;2.60;100.00;96942.56;5066321;28;20095;-57
2022/12/08 01:17:58;;;;;;;35.08;14.73;;;;;;;2.61;100.00;96933.22;5065579;28;20110;-57
2022/12/08 01:20:24;;;;;;;35.25;14.00;;;;;;;2.21;100.00;96877.13;5064458;28;20045;-59
2022/12/08 01:22:51;;;;;;;39.85;16.17;;;;;;;1.66;100.00;96814.09;5065128;28;20566;-57
2022/12/08 01:25:18;;;;;;;37.05;15.45;;;;;;;2.46;100.00;96931.00;5065910;28;20123;-59
2022/12/08 01:27:44;;;;;;;37.30;16.55;;;;;;;2.53;100.00;96931.31;5063937;28;20056;-57
2022/12/08 01:30:12;;;;;;;47.38;16.73;;;;;;;2.32;100.00;96924.88;5065979;28;20053;-59
2022/12/08 01:32:38;;;;;;;48.97;19.48;;;;;;;2.40;100.00;96937.75;5065662;28;20059;-57
2022/12/08 01:35:05;;;;;;;54.83;21.15;;;;;;;2.27;100.00;96938.69;5066075;28;20052;-57
2022/12/08 01:37:32;;;;;;;59.45;21.42;;;;;;;2.25;100.00;96946.38;5064908;28;20147;-58
2022/12/08 01:39:58;;;;;;;56.33;21.20;;;;;;;2.30;100.00;96948.97;5065580;28;20109;-56
2022/12/08 01:42:25;;;;;;;53.30;21.48;;;;;;;1.70;100.00;96860.66;5065134;28;20442;-56
2022/12/08 01:44:53;;;;;;;57.08;22.83;;;;;;;2.21;100.00;96934.50;5065699;28;20052;-56
2022/12/08 01:47:23;;;;;;;58.63;24.20;;;;;;;1.81;100.00;96860.06;5065290;28;20097;-57
2022/12/08 01:49:50;;;;;;;53.60;22.50;;;;;;;2.34;100.00;96939.03;5063956;28;20135;-55
2022/12/08 01:52:28;;;;;;;56.10;20.45;;;;;;;2.32;100.00;96939.34;5064992;28;20094;-56
2022/12/08 01:55:01;;;;;;;43.72;17.58;;;;;;;2.39;100.00;96926.00;5065093;28;20056;-57
2022/12/08 01:57:35;;;;;;;44.30;18.50;;;;;;;2.34;100.00;96933.56;5065160;28;20901;-57
2022/12/08 02:00:08;;;;;;;47.55;18.45;;;;;;;2.24;100.00;96907.34;5065506;28;20590;-57
2022/12/08 02:02:51;;;;;;;62.20;20.98;;;;;;;1.90;100.00;96858.13;5064840;28;20090;-57
2022/12/08 02:05:21;;;;;;;65.82;21.02;;;;;;;2.40;100.00;96932.28;5065389;28;20060;-58
2022/12/08 02:07:48;;;;;;;52.92;21.60;;;;;;;2.33;100.00;96931.94;5063673;28;20489;-56
2022/12/08 02:10:18;;;;;;;56.70;22.33;;;;;;;2.29;100.00;96925.50;5065233;28;20052;-55
2022/12/08 02:12:46;;;;;;;56.75;21.65;;;;;;;2.36;100.00;96926.63;5064893;28;20673;-56
2022/12/08 02:15:13;;;;;;;55.63;22.65;;;;;;;2.37;100.00;96922.78;5065226;28;20144;-57
2022/12/08 02:18:21;;;;;;;48.63;17.42;;;;;;;2.35;100.00;96935.16;5065127;28;20056;-57
2022/12/08 02:20:48;;;;;;;48.17;16.95;;;;;;;2.25;100.00;96919.06;5059331;28;20108;-57
2022/12/08 02:23:41;;;;;;;47.83;15.93;;;;;;;2.27;100.00;96922.28;5064003;28;20143;-56
2022/12/08 02:26:25;;;;;;;58.90;19.27;;;;;;;2.37;100.00;96927.47;5054272;28;20139;-56
2022/12/08 02:28:55;;;;;;;54.38;19.23;;;;;;;2.18;100.00;96925.00;5064214;28;20060;-57
2022/12/08 02:31:40;;;;;;;44.25;16.80;;;;;;;2.20;100.00;96930.16;5064103;28;20120;-57
2022/12/08 02:34:10;;;;;;;45.30;15.43;;;;;;;2.25;100.00;96928.09;5062067;28;20048;-56
2022/12/08 02:36:58;;;;;;;44.30;16.80;;;;;;;2.25;100.00;96925.34;5062718;28;20143;-56
2022/12/08 02:39:32;;;;;;;44.03;16.80;;;;;;;2.38;100.00;96924.41;5063928;28;20490;-57
2022/12/08 02:42:14;;;;;;;45.80;19.75;;;;;;;1.87;100.00;96847.03;5064081;28;20117;-56
2022/12/08 02:44:55;;;;;;;52.03;20.33;;;;;;;2.08;100.00;96905.41;5064571;28;20150;-57
2022/12/08 02:47:23;;;;;;;53.35;20.13;;;;;;;1.98;100.00;96919.34;5062914;28;20135;-56
2022/12/08 02:49:50;;;;;;;52.13;19.65;;;;;;;1.88;100.00;96911.47;5063066;28;20540;-57
2022/12/08 02:52:16;;;;;;;40.15;18.20;;;;;;;2.05;100.00;96934.16;5063969;28;20562;-57
2022/12/08 02:54:55;;;;;;;42.78;17.23;;;;;;;2.10;100.00;96939.47;5064725;28;20049;-57
2022/12/08 02:57:50;;;;;;;38.42;16.45;;;;;;;2.16;100.00;96948.31;5064248;28;20147;-57
2022/12/08 03:00:23;;;;;;;44.35;16.33;;;;;;;2.11;100.00;96945.72;5064514;28;20056;-58
2022/12/08 03:03:14;;;;;;;42.25;15.82;;;;;;;2.25;100.00;96946.38;5064573;28;20157;-56
2022/12/08 03:06:21;;;;;;;40.72;15.88;;;;;;;2.33;100.00;96937.41;5064449;28;20503;-56
2022/12/08 03:09:01;;;;;;;42.67;16.48;;;;;;;1.94;100.00;96877.41;5062794;28;20044;-58
2022/12/08 03:11:46;;;;;;;38.20;17.13;;;;;;;2.46;100.00;96931.81;5063910;28;20151;-57
2022/12/08 03:14:16;;;;;;;40.33;16.90;;;;;;;2.16;100.00;96861.69;5063824;28;20110;-57
2022/12/08 03:16:48;;;;;;;44.90;17.08;;;;;;;2.75;100.00;96939.34;5063877;28;20048;-57
2022/12/08 03:19:18;;;;;;;42.78;19.15;;;;;;;2.65;100.00;96929.56;5063538;28;20453;-57
2022/12/08 03:22:01;;;;;;;51.22;19.95;;;;;;;2.54;100.00;96861.84;5063438;28;20532;-57
2022/12/08 03:24:35;;;;;;;48.20;21.77;;;;;;;2.38;100.00;96830.66;5064240;28;20106;-56
2022/12/08 03:27:20;;;;;;;50.78;21.58;;;;;;;3.05;100.00;96943.84;5063688;28;20159;-57
2022/12/08 03:29:50;;;;;;;44.63;20.73;;;;;;;3.06;100.00;96951.72;5064303;28;20104;-56
2022/12/08 03:32:33;;;;;;;50.97;21.02;;;;;;;2.52;100.00;96948.84;5063193;28;20577;-58
2022/12/08 03:35:04;;;;;;;50.03;20.98;;;;;;;2.84;100.00;96951.09;5063946;28;20131;-57
2022/12/08 03:37:34;;;;;;;51.83;21.42;;;;;;;3.07;100.00;96947.03;5062115;28;20569;-56
2022/12/08 03:40:02;;;;;;;63.10;24.35;;;;;;;2.34;100.00;96818.78;5063788;28;20495;-58
2022/12/08 03:42:29;;;;;;;61.55;26.92;;;;;;;3.34;100.00;96957.59;5063247;28;20139;-56
2022/12/08 03:44:56;;;;;;;63.97;28.95;;;;;;;3.51;100.00;96940.34;5064137;28;20136;-56
2022/12/08 03:47:23;;;;;;;67.30;29.98;;;;;;;3.53;100.00;96944.34;5067553;28;20638;-56
2022/12/08 03:49:49;;;;;;;51.85;21.83;;;;;;;3.66;100.00;96943.31;5066334;28;20131;-56
2022/12/08 03:52:16;;;;;;;44.15;20.35;;;;;;;3.68;100.00;96952.03;5067503;28;20050;-57
2022/12/08 03:54:42;;;;;;;48.10;21.85;;;;;;;3.76;100.00;96953.91;5067937;28;20049;-58
2022/12/08 03:57:09;;;;;;;42.25;19.95;;;;;;;3.95;100.00;96951.56;5067618;28;20121;-57
2022/12/08 03:59:36;;;;;;;48.95;19.75;;;;;;;3.45;100.00;96898.63;5067604;28;20516;-59
2022/12/08 04:02:02;;;;;;;45.22;21.08;;;;;;;3.90;100.00;96959.97;5067696;28;20063;-57
2022/12/08 04:04:29;;;;;;;45.55;20.10;;;;;;;3.99;100.00;96957.19;5067579;28;20064;-58
2022/12/08 04:06:56;;;;;;;34.75;16.50;;;;;;;4.07;100.00;96948.94;5067449;28;20143;-57
2022/12/08 04:09:22;;;;;;;38.10;19.42;;;;;;;4.03;100.00;96961.66;5067435;28;20082;-57
2022/12/08 04:11:49;;;;;;;40.25;16.73;;;;;;;3.87;100.00;96949.66;5067154;28;20139;-56
2022/12/08 04:14:16;;;;;;;43.25;18.10;;;;;;;3.91;100.00;96966.25;5067408;28;20125;-57
2022/12/08 04:16:42;;;;;;;62.35;24.85;;;;;;;3.06;100.00;96842.28;5067531;28;20519;-56
2022/12/08 04:19:09;;;;;;;57.15;23.27;;;;;;;3.78;99.95;96968.06;5065688;28;20048;-56
2022/12/08 04:21:35;;;;;;;34.25;17.65;;;;;;;3.77;99.18;96971.97;5065541;28;20460;-56
2022/12/08 04:24:02;;;;;;;39.47;16.70;;;;;;;3.70;100.00;96966.19;5067276;28;20072;-56
2022/12/08 04:26:29;;;;;;;43.55;17.95;;;;;;;3.67;100.00;96964.09;5066435;28;20052;-59
2022/12/08 04:28:55;;;;;;;38.42;15.98;;;;;;;3.69;100.00;96989.22;5066627;28;20421;-57
2022/12/08 04:31:22;;;;;;;45.28;18.08;;;;;;;3.57;100.00;96967.22;5066675;28;20095;-57
2022/12/08 04:33:49;;;;;;;40.75;16.73;;;;;;;3.64;100.00;96966.69;5067103;28;20105;-57
2022/12/08 04:36:15;;;;;;;40.15;18.13;;;;;;;3.57;100.00;96959.00;5066526;28;20052;-57
2022/12/08 04:38:42;;;;;;;41.55;18.38;;;;;;;3.39;100.00;96930.06;5067039;28;20103;-57
2022/12/08 04:41:09;;;;;;;40.05;18.05;;;;;;;3.89;100.00;96974.78;5066964;28;20135;-58
2022/12/08 04:43:36;;;;;;;44.13;20.35;;;;;;;3.47;100.00;96901.84;5066824;28;20049;-57
2022/12/08 04:46:06;;;;;;;44.17;22.75;;;;;;;3.81;100.00;96961.94;5066950;28;20056;-57
2022/12/08 04:48:33;;;;;;;71.70;28.60;;;;;;;1.87;100.00;96632.13;5067032;28;20140;-57
2022/12/08 04:50:59;;;;;;;72.15;31.15;;;;;;;4.15;100.00;96974.69;5066032;28;20500;-57
2022/12/08 04:53:26;;;;;;;68.68;28.23;;;;;;;4.24;100.00;96976.25;5066630;28;20060;-57
2022/12/08 04:55:52;;;;;;;88.28;35.30;;;;;;;4.13;100.00;96947.59;5064839;28;20158;-57
2022/12/08 04:58:20;;;;;;;106.82;40.50;;;;;;;3.89;100.00;96969.31;5065536;28;20446;-58
2022/12/08 05:00:47;;;;;;;91.50;35.28;;;;;;;4.37;100.00;96980.69;5066656;28;20122;-57
2022/12/08 05:03:14;;;;;;;67.68;26.30;;;;;;;4.48;99.99;96976.41;5065665;28;20060;-58
2022/12/08 05:05:42;;;;;;;50.10;21.65;;;;;;;4.18;99.81;96920.00;5066238;28;20106;-56
2022/12/08 05:08:09;;;;;;;49.47;19.38;;;;;;;4.47;100.00;96969.31;5064920;28;20048;-56
2022/12/08 05:10:36;;;;;;;35.47;17.90;;;;;;;4.51;100.00;96975.75;5066347;28;20055;-56
2022/12/08 05:13:03;;;;;;;44.72;18.58;;;;;;;3.65;100.00;96826.69;5065572;28;20148;-56
2022/12/08 05:15:29;;;;;;;38.58;16.17;;;;;;;4.69;100.00;96977.22;5066075;28;20424;-56
2022/12/08 05:17:56;;;;;;;36.10;16.65;;;;;;;4.55;100.00;96960.22;5064244;28;20044;-57
2022/12/08 05:20:22;;;;;;;40.80;18.38;;;;;;;4.71;100.00;96973.34;5066225;28;20102;-56
2022/12/08 05:22:49;;;;;;;45.47;19.17;;;;;;;4.89;100.00;96972.88;5065598;28;20144;-56
2022/12/08 05:25:16;;;;;;;37.55;17.02;;;;;;;4.98;100.00;96968.09;5065402;28;20076;-57
2022/12/08 05:27:42;;;;;;;41.38;18.83;;;;;;;5.05;100.00;96967.56;5065479;28;20103;-56
2022/12/08 05:30:09;;;;;;;38.88;17.30;;;;;;;4.73;100.00;96927.19;5065822;28;20125;-56
2022/12/08 05:32:36;;;;;;;37.88;16.38;;;;;;;5.02;99.44;96957.28;5065426;28;20601;-57
2022/12/08 05:35:03;;;;;;;33.30;14.88;;;;;;;5.04;100.00;96971.47;5065864;28;20171;-57
2022/12/08 05:37:29;;;;;;;38.15;15.68;;;;;;;4.98;100.00;96972.81;5065449;28;20083;-57
2022/12/08 05:39:56;;;;;;;41.42;15.02;;;;;;;4.96;100.00;96972.34;5065885;28;20123;-57
2022/12/08 05:42:23;;;;;;;38.47;16.35;;;;;;;4.98;100.00;96967.31;5065357;28;20147;-57
2022/12/08 05:44:51;;;;;;;41.05;16.77;;;;;;;5.03;100.00;96950.63;5065547;28;20126;-57
2022/12/08 05:47:17;;;;;;;36.55;15.30;;;;;;;5.16;100.00;96980.56;5064908;28;20048;-58
2022/12/08 05:49:44;;;;;;;35.72;16.08;;;;;;;5.18;100.00;96994.75;5064799;28;20105;-57
2022/12/08 05:52:10;;;;;;;75.13;30.77;;;;;;;5.20;100.00;96983.44;5063873;28;20082;-57
2022/12/08 05:54:37;;;;;;;157.95;73.30;;;;;;;5.09;100.00;96990.47;5063744;28;20470;-56
2022/12/08 05:57:04;;;;;;;90.72;45.30;;;;;;;5.06;99.61;96997.44;5064759;28;20481;-56
2022/12/08 05:59:30;;;;;;;56.30;26.58;;;;;;;4.79;98.42;97003.44;5065168;28;20135;-56
2022/12/08 06:01:57;;;;;;;48.60;24.42;;;;;;;4.73;98.92;97069.84;5063261;28;20133;-56
2022/12/08 06:04:24;;;;;;;39.92;18.77;;;;;;;4.58;98.65;96981.50;5065327;28;20056;-57
2022/12/08 06:06:51;;;;;;;33.15;15.77;;;;;;;4.65;99.50;96998.25;5064817;28;20129;-57
2022/12/08 06:09:17;;;;;;;35.63;15.02;;;;;;;4.64;98.56;97006.81;5064775;28;20506;-58
2022/12/08 06:11:45;;;;;;;32.97;16.25;;;;;;;4.15;99.62;96961.78;5064611;28;20052;-57
2022/12/08 06:14:12;;;;;;;38.47;16.00;;;;;;;4.53;100.00;97009.16;5064621;28;20048;-57
2022/12/08 06:16:39;;;;;;;39.95;16.30;;;;;;;4.54;100.00;97002.50;5064956;28;20056;-57
2022/12/08 06:19:05;;;;;;;41.00;18.40;;;;;;;4.62;99.97;97004.41;5064729;28;20534;-56
2022/12/08 06:21:32;;;;;;;45.00;18.67;;;;;;;4.65;100.00;97003.72;5064459;28;20080;-58
2022/12/08 06:23:59;;;;;;;41.10;19.30;;;;;;;4.61;100.00;96997.31;5064708;28;20109;-57
2022/12/08 06:26:25;;;;;;;44.92;18.85;;;;;;;4.57;100.00;96996.34;5064059;28;20079;-56
2022/12/08 06:28:52;;;;;;;39.65;18.55;;;;;;;4.79;100.00;96997.19;5063989;28;20067;-56
2022/12/08 06:31:21;;;;;;;45.70;18.33;;;;;;;4.93;100.00;97000.47;5063646;28;20049;-57
2022/12/08 06:33:49;;;;;;;43.42;20.13;;;;;;;5.00;100.00;96984.25;5062462;28;20098;-57
2022/12/08 06:36:18;;;;;;;39.40;17.60;;;;;;;5.27;100.00;96987.22;5062983;28;20477;-57
2022/12/08 06:38:45;;;;;;;38.63;17.15;;;;;;;5.32;100.00;97002.69;5064380;28;20477;-56
2022/12/08 06:41:12;;;;;;;36.75;16.63;;;;;;;5.41;100.00;96995.16;5063391;28;20404;-57
2022/12/08 06:43:40;;;;;;;37.90;17.67;;;;;;;5.62;100.00;96994.00;5062498;28;20651;-57
2022/12/08 06:46:10;;;;;;;46.50;18.98;;;;;;;5.77;99.42;97000.78;5064507;28;20052;-57
2022/12/08 06:48:37;;;;;;;47.72;20.35;;;;;;;5.65;99.01;96981.50;5064293;28;20370;-58
2022/12/08 06:51:09;;;;;;;38.50;19.77;;;;;;;5.57;98.46;96932.94;5055201;28;20581;-57
2022/12/08 06:53:37;;;;;;;40.35;21.38;;;;;;;6.14;98.50;96999.72;5063810;28;20499;-58
2022/12/08 06:56:05;;;;;;;42.78;21.92;;;;;;;6.28;97.90;97015.88;5063876;28;20144;-60
2022/12/08 06:58:31;;;;;;;46.60;21.42;;;;;;;6.34;97.39;96998.78;5062463;28;20120;-59
2022/12/08 07:01:07;;;;;;;54.97;27.52;;;;;;;5.68;96.54;96881.91;5064277;28;20064;-58
2022/12/08 07:03:35;;;;;;;51.08;27.80;;;;;;;6.56;95.40;97011.31;5063639;28;20629;-58
2022/12/08 07:06:02;;;;;;;47.45;23.83;;;;;;;6.66;95.03;97011.63;5063484;28;20091;-61
2022/12/08 07:08:30;;;;;;;40.42;22.70;;;;;;;6.66;94.66;97011.63;5063750;28;20632;-57
2022/12/08 07:10:57;;;;;;;47.83;23.65;;;;;;;6.66;94.63;97010.81;5062219;28;20056;-57
2022/12/08 07:13:24;;;;;;;57.78;27.58;;;;;;;6.76;94.99;97004.84;5058782;28;20076;-58
2022/12/08 07:15:51;;;;;;;59.22;30.80;;;;;;;6.81;94.49;97013.66;5054566;28;20143;-58
2022/12/08 07:18:17;;;;;;;68.78;34.95;;;;;;;6.38;94.71;96924.63;5062823;28;20091;-60
2022/12/08 07:20:44;;;;;;;70.15;37.90;;;;;;;6.80;94.72;96984.53;5063062;28;20139;-58
2022/12/08 07:23:11;;;;;;;74.18;34.45;;;;;;;7.15;93.94;97018.63;5063025;28;20530;-60
2022/12/08 07:25:37;;;;;;;52.47;25.95;;;;;;;7.31;94.05;97026.97;5063531;28;20036;-58
2022/12/08 07:28:09;;;;;;;54.22;26.98;;;;;;;7.33;92.76;97028.22;5062173;28;20053;-60
2022/12/08 07:30:35;;;;;;;48.00;24.92;;;;;;;7.46;91.78;97034.50;5062772;28;20059;-58
2022/12/08 07:33:04;;;;;;;43.83;24.70;;;;;;;7.33;92.09;96986.88;5062034;28;20075;-60
2022/12/08 07:35:31;;;;;;;49.45;25.77;;;;;;;7.14;91.33;96934.41;5062467;28;20430;-59
2022/12/08 07:38:01;;;;;;;47.10;24.50;;;;;;;7.57;90.68;97014.34;5062333;28;20057;-57
2022/12/08 07:40:28;;;;;;;53.38;27.05;;;;;;;6.91;91.13;96988.41;5062988;28;20076;-59
2022/12/08 07:42:54;;;;;;;56.17;29.33;;;;;;;6.75;96.34;97041.78;5058603;28;20055;-59
2022/12/08 07:45:21;;;;;;;48.50;25.25;;;;;;;6.86;94.55;97016.16;5061673;28;20365;-56
2022/12/08 07:47:55;;;;;;;52.90;25.67;;;;;;;6.77;98.04;97050.47;5060213;28;20057;-57
2022/12/08 07:50:22;;;;;;;57.03;26.98;;;;;;;7.07;95.38;97036.09;5059805;28;20055;-57
2022/12/08 07:52:48;;;;;;;51.97;25.92;;;;;;;7.03;95.40;97076.50;5059426;28;20422;-58
2022/12/08 07:55:15;;;;;;;47.55;25.15;;;;;;;6.95;94.93;97016.88;5059480;28;20106;-58
2022/12/08 07:57:42;;;;;;;52.90;23.70;;;;;;;6.86;98.29;97062.97;5060728;28;20149;-56
2022/12/08 08:00:09;;;;;;;50.92;24.90;;;;;;;7.02;97.37;97063.88;5062574;28;20053;-56
2022/12/08 08:02:36;;;;;;;52.85;23.65;;;;;;;7.24;96.95;97066.13;5063065;28;20130;-57
2022/12/08 08:05:03;;;;;;;47.72;24.92;;;;;;;7.34;96.97;97070.34;5062225;28;20608;-56
2022/12/08 08:07:31;;;;;;;48.40;23.55;;;;;;;7.35;95.70;97056.22;5062998;28;20419;-60
2022/12/08 08:09:57;;;;;;;44.08;23.02;;;;;;;7.56;94.87;97076.13;5063082;28;20052;-60
2022/12/08 08:12:24;;;;;;;74.35;35.47;;;;;;;7.61;95.46;97077.84;5062531;28;20760;-61
2022/12/08 08:15:00;;;;;;;63.38;28.08;;;;;;;6.77;94.60;97050.47;5062096;28;20067;-58
2022/12/08 08:17:28;;;;;;;55.10;25.33;;;;;;;5.47;94.24;96727.41;5061451;28;20558;-59
2022/12/08 08:19:55;;;;;;;51.92;23.30;;;;;;;7.32;94.55;97036.81;5062706;28;20040;-59
2022/12/08 08:22:24;;;;;;;42.85;20.27;;;;;;;7.42;94.25;97037.16;5058591;28;20404;-57
2022/12/08 08:24:50;;;;;;;37.63;19.33;;;;;;;7.62;94.77;97079.44;5058557;28;20056;-60
2022/12/08 08:27:17;;;;;;;42.42;20.52;;;;;;;7.57;95.59;97077.72;5058342;28;20139;-59
2022/12/08 08:29:44;;;;;;;45.58;20.25;;;;;;;7.12;95.15;96985.47;5061994;28;20044;-58
2022/12/08 08:32:11;;;;;;;47.65;19.52;;;;;;;7.72;94.67;97071.50;5062885;28;20052;-57
2022/12/08 08:34:38;;;;;;;44.42;19.75;;;;;;;7.80;95.60;97060.63;5066020;28;20426;-59
2022/12/08 08:37:04;;;;;;;40.65;19.05;;;;;;;7.42;100.00;97072.97;5063262;28;20559;-58
2022/12/08 08:39:31;;;;;;;38.35;18.35;;;;;;;7.62;98.84;97083.00;5064533;28;20071;-58
2022/12/08 08:41:58;;;;;;;47.75;18.58;;;;;;;7.68;98.62;97065.06;5065555;28;20075;-62
2022/12/08 08:44:25;;;;;;;37.03;16.45;;;;;;;7.70;97.47;97028.88;5065398;28;20053;-62
2022/12/08 08:46:51;;;;;;;36.30;17.88;;;;;;;5.78;97.12;96749.56;5063801;28;20135;-58
2022/12/08 08:49:19;;;;;;;42.70;17.27;;;;;;;7.89;98.36;97073.13;5063387;28;20515;-57
2022/12/08 08:51:46;;;;;;;45.13;18.50;;;;;;;8.02;97.56;97080.19;5066122;28;20131;-58
2022/12/08 08:54:12;;;;;;;43.20;17.05;;;;;;;8.07;95.80;97046.81;5064255;28;20479;-58
2022/12/08 08:56:39;;;;;;;35.90;16.73;;;;;;;8.24;94.54;97053.97;5063056;28;20045;-59
2022/12/08 08:59:06;;;;;;;36.30;17.50;;;;;;;8.44;93.98;97069.50;5065056;28;20114;-57
2022/12/08 09:01:33;;;;;;;35.60;17.15;;;;;;;8.08;93.98;96996.00;5065141;28;20056;-59
2022/12/08 09:04:00;;;;;;;33.60;17.02;;;;;;;8.59;93.22;97065.94;5064445;28;20064;-60
2022/12/08 09:06:27;;;;;;;31.05;15.68;;;;;;;8.28;93.22;97043.84;5064832;28;20061;-61
2022/12/08 09:08:54;;;;;;;36.83;16.67;;;;;;;8.45;93.50;97054.53;5064017;28;20076;-59
2022/12/08 09:11:22;;;;;;;42.92;20.45;;;;;;;8.31;94.07;97043.13;5061817;28;20607;-59
2022/12/08 09:13:50;;;;;;;36.55;16.73;;;;;;;8.45;94.25;97060.06;5063733;28;20063;-61
2022/12/08 09:16:18;;;;;;;37.83;15.90;;;;;;;7.85;94.55;96974.91;5063691;28;20494;-60
2022/12/08 09:18:45;;;;;;;42.55;18.67;;;;;;;7.56;95.14;96935.56;5058620;28;20118;-58
2022/12/08 09:21:15;;;;;;;42.95;17.88;;;;;;;8.21;96.90;97054.66;5064757;28;20489;-57
2022/12/08 09:23:42;;;;;;;38.17;16.63;;;;;;;8.47;95.44;97052.22;5064775;28;20155;-59
2022/12/08 09:26:09;;;;;;;36.90;16.75;;;;;;;8.53;94.52;97046.09;5064503;28;20049;-60
2022/12/08 09:28:36;;;;;;;43.05;17.33;;;;;;;8.62;94.02;97043.13;5064361;28;20061;-59
2022/12/08 09:31:03;;;;;;;41.47;17.58;;;;;;;8.25;93.70;96972.81;5064304;28;20135;-59
2022/12/08 09:33:30;;;;;;;39.08;17.75;;;;;;;8.41;94.42;97001.22;5062672;28;20562;-59
2022/12/08 09:36:01;;;;;;;37.38;15.45;;;;;;;8.67;94.31;97037.34;5065326;28;20052;-61
2022/12/08 09:38:28;;;;;;;31.85;16.15;;;;;;;8.77;93.96;97023.00;5056584;28;20049;-60
2022/12/08 09:40:55;;;;;;;32.83;15.95;;;;;;;8.88;93.11;97024.03;5061278;28;20044;-59
2022/12/08 09:43:50;;;;;;;45.20;17.10;;;;;;;8.88;91.38;97029.56;5063479;28;20546;-56
2022/12/08 09:46:19;;;;;;;38.03;17.95;;;;;;;8.67;91.65;96995.91;5060828;28;20052;-57
2022/12/08 09:48:54;;;;;;;35.38;16.75;;;;;;;9.05;92.23;97026.41;5063398;28;20506;-57
2022/12/08 09:51:29;;;;;;;41.50;19.90;;;;;;;6.96;91.23;96709.25;5057922;28;20056;-66
2022/12/08 09:54:17;;;;;;;61.67;26.27;;;;;;;8.36;91.95;96902.13;5061923;28;20560;-60
2022/12/08 09:56:43;;;;;;;48.70;22.85;;;;;;;9.18;91.19;97008.53;5063764;28;20399;-58
2022/12/08 09:59:21;;;;;;;37.67;17.63;;;;;;;9.33;90.29;97013.19;5064180;28;20110;-58
2022/12/08 10:01:48;;;;;;;37.58;17.42;;;;;;;9.16;89.88;96991.50;5063993;28;20441;-59
2022/12/08 10:04:21;;;;;;;38.90;18.20;;;;;;;9.44;89.63;97007.91;5064374;28;20131;-58
2022/12/08 10:06:56;;;;;;;37.80;18.40;;;;;;;9.57;88.92;97010.16;5062678;28;20082;-58
2022/12/08 10:09:42;;;;;;;37.33;17.38;;;;;;;9.54;88.16;97002.56;5064283;28;20056;-57
2022/12/08 10:12:24;;;;;;;37.85;18.27;;;;;;;9.08;88.47;96945.53;5063644;28;20044;-57
2022/12/08 10:14:51;;;;;;;34.83;16.95;;;;;;;9.15;89.20;97000.97;5064096;28;20557;-56
2022/12/08 10:17:22;;;;;;;39.00;18.42;;;;;;;9.25;90.16;97000.38;5061667;28;20116;-59
2022/12/08 10:19:56;;;;;;;36.92;16.83;;;;;;;9.45;89.13;96993.72;5063644;28;20036;-66
2022/12/08 10:22:25;;;;;;;30.33;14.98;;;;;;;9.01;88.40;96917.75;5063038;28;20048;-63
2022/12/08 10:25:17;;;;;;;29.80;15.02;;;;;;;9.35;88.59;96993.47;5061928;28;20117;-65
2022/12/08 10:27:48;;;;;;;32.75;15.95;;;;;;;9.01;92.62;96986.81;5053022;28;20416;-60
2022/12/08 10:30:17;;;;;;;37.60;17.38;;;;;;;9.29;92.25;96992.97;5062371;28;20125;-60
2022/12/08 10:32:48;;;;;;;44.35;19.17;;;;;;;9.34;90.00;96991.88;5063546;28;20113;-60
2022/12/08 10:35:17;;;;;;;43.20;20.55;;;;;;;9.32;89.95;96977.63;5055753;28;20102;-60
2022/12/08 10:38:01;;;;;;;48.17;21.98;;;;;;;9.37;90.97;96975.38;5063458;28;20563;-60
2022/12/08 10:40:34;;;;;;;35.65;17.13;;;;;;;9.34;90.73;96976.09;5063108;28;20505;-57
2022/12/08 10:43:16;;;;;;;47.28;20.20;;;;;;;9.47;89.66;96980.31;5062801;28;20052;-67
2022/12/08 10:45:43;;;;;;;35.60;16.50;;;;;;;9.46;89.67;96970.41;5063678;28;20541;-57
2022/12/08 10:48:15;;;;;;;26.02;14.02;;;;;;;9.25;89.65;96938.78;5062272;28;20068;-58
2022/12/08 10:50:53;;;;;;;27.52;13.60;;;;;;;9.43;90.19;96978.63;5060187;28;20079;-57
2022/12/08 10:53:29;;;;;;;31.08;14.50;;;;;;;9.56;89.15;96967.06;5062850;28;20102;-60
2022/12/08 10:56:01;;;;;;;42.35;19.83;;;;;;;9.38;89.54;96965.09;5062299;28;20322;-60
2022/12/08 10:58:39;;;;;;;31.20;14.53;;;;;;;9.46;89.82;96962.13;5061263;28;20510;-58
2022/12/08 11:01:17;;;;;;;27.23;12.80;;;;;;;9.38;89.76;96960.38;5054360;28;20056;-58
2022/12/08 11:03:56;;;;;;;28.75;12.65;;;;;;;8.88;91.30;96900.53;5056400;28;20071;-57
2022/12/08 11:06:31;;;;;;;26.98;11.77;;;;;;;9.16;91.37;96969.41;5062777;28;20132;-57
2022/12/08 11:09:00;;;;;;;31.75;12.48;;;;;;;8.90;93.08;96960.94;5053278;28;20155;-61
2022/12/08 11:11:54;;;;;;;28.45;12.95;;;;;;;8.88;93.66;96958.53;5062498;28;20045;-57
2022/12/08 11:14:35;;;;;;;26.25;14.00;;;;;;;9.04;94.14;96967.56;5060713;28;20056;-58
2022/12/08 11:17:12;;;;;;;27.27;13.68;;;;;;;9.16;93.29;96963.88;5062526;28;20135;-58
2022/12/08 11:20:01;;;;;;;21.40;11.15;;;;;;;9.23;92.74;96954.94;5063061;28;20087;-57
2022/12/08 11:22:29;;;;;;;23.17;10.65;;;;;;;8.93;93.33;96961.00;5063099;28;20386;-61
2022/12/08 11:24:59;;;;;;;24.75;10.95;;;;;;;8.88;93.51;96946.69;5057228;28;20115;-61
2022/12/08 11:27:25;;;;;;;22.60;10.82;;;;;;;8.64;94.86;96941.41;5042044;28;20156;-61
2022/12/08 11:29:54;;;;;;;28.48;13.73;;;;;;;8.46;95.92;96902.38;5060212;28;20044;-59
2022/12/08 11:32:21;;;;;;;27.45;13.52;;;;;;;6.59;94.93;96598.63;5061275;28;20168;-61
2022/12/08 11:34:53;;;;;;;29.35;13.30;;;;;;;8.49;97.79;96906.34;5057656;28;20127;-60
2022/12/08 11:37:27;;;;;;;34.80;16.17;;;;;;;8.84;96.18;96929.22;5060214;28;20596;-57
2022/12/08 11:40:05;;;;;;;33.75;16.05;;;;;;;8.05;96.64;96819.38;5042901;28;20049;-58